createdAt,value
2017-07-22T00:00:12.308Z,98512.03
2017-07-22T00:02:41.555Z,98519.17
2017-07-22T00:05:09.611Z,98515.66
2017-07-22T00:07:38.119Z,98523.56
2017-07-22T00:10:06.489Z,98517.47
2017-07-22T00:12:34.894Z,98514.61
2017-07-22T00:15:03.336Z,98506.66
2017-07-22T00:17:31.943Z,98504.79
2017-07-22T00:20:00.219Z,98505.20
2017-07-22T00:22:28.804Z,98502.62
2017-07-22T00:24:57.476Z,98501.32
2017-07-22T00:27:25.895Z,98497.83
2017-07-22T00:29:54.429Z,98498.10
2017-07-22T00:32:22.890Z,98490.15
2017-07-22T00:34:51.214Z,98485.55
2017-07-22T00:37:21.222Z,98490.45
2017-07-22T00:39:49.603Z,98480.31
2017-07-22T00:42:20.086Z,98486.25
2017-07-22T00:44:48.598Z,98487.08
2017-07-22T00:47:16.764Z,98485.41
2017-07-22T00:49:46.134Z,98471.39
2017-07-22T00:52:14.678Z,98471.02
2017-07-22T00:54:42.926Z,98473.33
2017-07-22T00:57:11.454Z,98465.86
2017-07-22T00:59:39.792Z,98465.89
2017-07-22T01:02:07.986Z,98463.61
2017-07-22T01:04:37.735Z,98463.45
2017-07-22T01:07:06.987Z,98466.30
2017-07-22T01:09:35.348Z,98461.11
2017-07-22T01:12:03.735Z,98468.86
2017-07-22T01:14:32.172Z,98466.72
2017-07-22T01:18:03.706Z,98466.62
2017-07-22T01:20:32.243Z,98467.94
2017-07-22T01:23:00.553Z,98469.09
2017-07-22T01:25:29.130Z,98469.23
2017-07-22T01:27:57.629Z,98458.52
2017-07-22T01:30:25.998Z,98453.33
2017-07-22T01:32:54.127Z,98456.44
2017-07-22T01:35:22.637Z,98466.16
2017-07-22T01:37:50.999Z,98461.72
2017-07-22T01:40:22.231Z,98455.25
2017-07-22T01:42:50.654Z,98453.16
2017-07-22T01:45:21.537Z,98457.77
2017-07-22T01:47:49.720Z,98455.49
2017-07-22T01:50:20.302Z,98449.98
2017-07-22T01:52:48.643Z,98460.21
2017-07-22T01:55:18.334Z,98462.79
2017-07-22T01:57:46.898Z,98458.78
2017-07-22T02:00:18.323Z,98458.97
2017-07-22T02:02:46.558Z,98458.65
2017-07-22T02:05:15.024Z,98461.89
2017-07-22T02:07:43.501Z,98452.86
2017-07-22T02:10:11.821Z,98444.14
2017-07-22T02:12:40.565Z,98435.08
2017-07-22T02:15:09.167Z,98439.74
2017-07-22T02:17:37.666Z,98458.42
2017-07-22T02:20:06.440Z,98463.09
2017-07-22T02:22:34.722Z,98465.88
2017-07-22T02:25:03.246Z,98470.84
2017-07-22T02:27:31.687Z,98474.02
2017-07-22T02:29:59.831Z,98484.77
2017-07-22T02:32:28.433Z,98464.31
2017-07-22T02:34:56.788Z,98453.25
2017-07-22T02:37:25.078Z,98471.73
2017-07-22T02:39:53.347Z,98478.58
2017-07-22T02:42:21.811Z,98479.94
2017-07-22T02:44:50.074Z,98494.20
2017-07-22T02:47:21.122Z,98490.20
2017-07-22T02:49:49.738Z,98496.84
2017-07-22T02:52:20.109Z,98495.70
2017-07-22T02:54:48.896Z,98499.48
2017-07-22T02:57:19.430Z,98499.31
2017-07-22T02:59:47.767Z,98502.02
2017-07-22T03:02:15.900Z,98496.03
2017-07-22T03:04:44.081Z,98496.11
2017-07-22T03:07:12.698Z,98504.09
2017-07-22T03:09:40.870Z,98503.27
2017-07-22T03:12:09.317Z,98506.67
2017-07-22T03:14:38.118Z,98506.26
2017-07-22T03:17:06.587Z,98500.35
2017-07-22T03:19:34.711Z,98494.34
2017-07-22T03:22:03.363Z,98496.88
2017-07-22T03:24:31.994Z,98490.77
2017-07-22T03:27:00.333Z,98510.98
2017-07-22T03:29:28.814Z,98509.06
2017-07-22T03:31:57.183Z,98498.43
2017-07-22T03:34:25.701Z,98499.20
2017-07-22T03:36:54.556Z,98489.25
2017-07-22T03:39:23.233Z,98484.84
2017-07-22T03:41:51.762Z,98489.94
2017-07-22T03:44:22.037Z,98485.33
2017-07-22T03:46:50.402Z,98487.00
2017-07-22T03:49:21.157Z,98495.50
2017-07-22T03:51:49.496Z,98506.13
2017-07-22T03:54:19.969Z,98507.78
2017-07-22T03:56:48.349Z,98498.92
2017-07-22T03:59:19.970Z,98493.97
2017-07-22T04:01:48.371Z,98491.52
2017-07-22T04:04:17.423Z,98491.94
2017-07-22T04:06:45.855Z,98492.00
2017-07-22T04:09:14.222Z,98496.34
2017-07-22T04:11:42.710Z,98500.70
2017-07-22T04:14:11.198Z,98497.68
2017-07-22T04:16:39.557Z,98508.98
2017-07-22T04:19:07.862Z,98516.56
2017-07-22T04:21:36.164Z,98514.08
2017-07-22T04:24:04.371Z,98510.80
2017-07-22T04:26:32.624Z,98521.75
2017-07-22T04:29:01.450Z,98528.76
2017-07-22T04:31:29.735Z,98527.00
2017-07-22T04:33:58.103Z,98512.23
2017-07-22T04:36:26.531Z,98514.16
2017-07-22T04:38:55.306Z,98524.13
2017-07-22T04:41:23.634Z,98523.80
2017-07-22T04:43:51.664Z,98527.34
2017-07-22T04:46:21.664Z,98527.59
2017-07-22T04:48:50.018Z,98532.63
2017-07-22T04:51:22.082Z,98535.74
2017-07-22T04:53:51.121Z,98526.70
2017-07-22T04:56:22.535Z,98536.57
2017-07-22T04:58:50.561Z,98530.03
2017-07-22T05:01:21.326Z,98537.34
2017-07-22T05:03:49.989Z,98541.44
2017-07-22T05:06:20.148Z,98539.33
2017-07-22T05:08:48.596Z,98552.08
2017-07-22T05:11:16.743Z,98553.31
2017-07-22T05:13:45.155Z,98555.81
2017-07-22T05:16:13.854Z,98556.60
2017-07-22T05:18:42.242Z,98558.05
2017-07-22T05:21:10.413Z,98554.94
2017-07-22T05:23:39.316Z,98554.64
2017-07-22T05:26:07.908Z,98556.61
2017-07-22T05:28:36.105Z,98558.44
2017-07-22T05:31:05.675Z,98553.67
2017-07-22T05:33:34.222Z,98558.73
2017-07-22T05:36:02.368Z,98560.00
2017-07-22T05:38:30.670Z,98561.09
2017-07-22T05:40:58.690Z,98559.58
2017-07-22T05:43:27.051Z,98560.87
2017-07-22T05:45:55.996Z,98557.77
2017-07-22T05:48:24.530Z,98559.17
2017-07-22T05:50:52.639Z,98556.47
2017-07-22T05:53:24.126Z,98563.58
2017-07-22T05:55:52.435Z,98568.61
2017-07-22T05:58:21.935Z,98580.13
2017-07-22T06:00:50.857Z,98572.28
2017-07-22T06:03:21.050Z,98569.76
2017-07-22T06:05:49.212Z,98559.73
2017-07-22T06:08:20.100Z,98555.44
2017-07-22T06:10:48.958Z,98566.28
2017-07-22T06:13:20.438Z,98583.66
2017-07-22T06:15:49.019Z,98579.14
2017-07-22T06:18:20.666Z,98577.70
2017-07-22T06:20:48.800Z,98582.93
2017-07-22T06:23:19.293Z,98586.77
2017-07-22T06:25:47.819Z,98593.99
2017-07-22T06:28:17.441Z,98615.84
2017-07-22T06:30:46.130Z,98615.57
2017-07-22T06:33:14.979Z,98630.38
2017-07-22T06:35:43.092Z,98629.78
2017-07-22T06:38:19.441Z,98635.98
2017-07-22T06:40:47.806Z,98641.77
2017-07-22T06:43:19.132Z,98642.78
2017-07-22T06:45:48.615Z,98652.22
2017-07-22T06:48:18.257Z,98663.36
2017-07-22T06:50:46.762Z,98660.66
2017-07-22T06:53:14.867Z,98655.27
2017-07-22T06:55:43.182Z,98659.83
2017-07-22T06:58:11.650Z,98651.14
2017-07-22T07:00:39.726Z,98647.17
2017-07-22T07:03:08.134Z,98643.70
2017-07-22T07:05:36.445Z,98646.98
2017-07-22T07:08:04.734Z,98654.25
2017-07-22T07:10:32.978Z,98652.02
2017-07-22T07:13:01.417Z,98656.50
2017-07-22T07:15:29.662Z,98653.09
2017-07-22T07:17:58.322Z,98652.87
2017-07-22T07:20:26.661Z,98656.03
2017-07-22T07:22:55.072Z,98662.38
2017-07-22T07:25:23.421Z,98662.06
2017-07-22T07:27:52.001Z,98674.37
2017-07-22T07:30:21.482Z,98673.64
2017-07-22T07:32:49.720Z,98673.38
2017-07-22T07:35:19.826Z,98677.81
2017-07-22T07:37:47.858Z,98678.47
2017-07-22T07:40:15.898Z,98681.12
2017-07-22T07:42:44.215Z,98686.89
2017-07-22T07:45:12.338Z,98687.16
2017-07-22T07:47:40.454Z,98688.88
2017-07-22T07:50:09.083Z,98692.11
2017-07-22T07:52:37.180Z,98695.89
2017-07-22T07:55:05.818Z,98696.89
2017-07-22T07:57:34.700Z,98689.64
2017-07-22T08:00:03.360Z,98697.18
2017-07-22T08:02:31.837Z,98706.52
2017-07-22T08:05:00.479Z,98703.40
2017-07-22T08:07:28.868Z,98704.55
2017-07-22T08:09:57.443Z,98709.63
2017-07-22T08:12:26.101Z,98710.97
2017-07-22T08:14:54.774Z,98711.42
2017-07-22T08:17:22.935Z,98709.86
2017-07-22T08:19:51.643Z,98712.16
2017-07-22T08:22:25.100Z,98711.83
2017-07-22T08:24:53.751Z,98717.90
2017-07-22T08:27:23.882Z,98717.45
2017-07-22T08:29:53.474Z,98715.84
2017-07-22T08:32:23.513Z,98716.70
2017-07-22T08:34:53.126Z,98718.16
2017-07-22T08:37:21.282Z,98725.18
2017-07-22T08:39:49.459Z,98722.08
2017-07-22T08:42:19.220Z,98727.31
2017-07-22T08:44:47.641Z,98721.20
2017-07-22T08:47:15.666Z,98721.17
2017-07-22T08:49:44.009Z,98726.48
2017-07-22T08:52:12.106Z,98721.25
2017-07-22T08:54:40.165Z,98725.14
2017-07-22T08:57:09.498Z,98724.03
2017-07-22T08:59:37.674Z,98722.58
2017-07-22T09:02:05.725Z,98722.88
2017-07-22T09:04:34.445Z,98728.78
2017-07-22T09:07:02.567Z,98721.42
2017-07-22T09:09:30.742Z,98728.31
2017-07-22T09:11:59.474Z,98725.97
2017-07-22T09:14:27.577Z,98725.45
2017-07-22T09:16:55.654Z,98729.54
2017-07-22T09:19:23.988Z,98729.34
2017-07-22T09:21:52.237Z,98733.86
2017-07-22T09:24:21.755Z,98740.15
2017-07-22T09:26:50.646Z,98734.80
2017-07-22T09:29:19.782Z,98739.43
2017-07-22T09:31:47.845Z,98737.51
2017-07-22T09:34:16.839Z,98736.98
2017-07-22T09:36:45.039Z,98731.45
2017-07-22T09:39:13.148Z,98733.56
2017-07-22T09:41:42.734Z,98732.29
2017-07-22T09:44:10.762Z,98735.43
2017-07-22T09:46:39.023Z,98732.12
2017-07-22T09:49:07.923Z,98733.13
2017-07-22T09:51:35.990Z,98734.97
2017-07-22T09:54:04.157Z,98740.39
2017-07-22T09:56:32.947Z,98734.20
2017-07-22T09:59:01.023Z,98737.26
2017-07-22T10:01:29.197Z,98737.21
2017-07-22T10:03:57.872Z,98742.11
2017-07-22T10:06:26.046Z,98745.77
2017-07-22T10:08:54.079Z,98739.70
2017-07-22T10:11:22.394Z,98746.42
2017-07-22T10:13:52.569Z,98745.14
2017-07-22T10:16:20.659Z,98749.37
2017-07-22T10:18:49.072Z,98750.83
2017-07-22T10:21:18.045Z,98742.42
2017-07-22T10:23:46.428Z,98753.70
2017-07-22T10:26:15.223Z,98753.91
2017-07-22T10:28:43.281Z,98752.70
2017-07-22T10:31:11.364Z,98752.73
2017-07-22T10:33:39.683Z,98750.22
2017-07-22T10:36:08.231Z,98753.66
2017-07-22T10:38:36.377Z,98758.82
2017-07-22T10:41:04.966Z,98750.30
2017-07-22T10:43:33.084Z,98752.99
2017-07-22T10:46:01.667Z,98751.59
2017-07-22T10:48:31.270Z,98750.59
2017-07-22T10:50:59.287Z,98745.25
2017-07-22T10:53:27.366Z,98749.94
2017-07-22T10:55:55.666Z,98755.14
2017-07-22T10:58:23.716Z,98756.50
2017-07-22T11:00:51.837Z,98761.13
2017-07-22T11:03:21.054Z,98759.90
2017-07-22T11:05:49.178Z,98762.41
2017-07-22T11:08:18.601Z,98764.56
2017-07-22T11:11:11.616Z,98760.23
2017-07-22T11:13:39.647Z,98761.02
2017-07-22T11:16:14.327Z,98760.67
2017-07-22T11:18:42.647Z,98767.32
2017-07-22T11:21:10.794Z,98763.06
2017-07-22T11:23:38.837Z,98762.50
2017-07-22T11:26:07.162Z,98760.74
2017-07-22T11:28:35.203Z,98763.69
2017-07-22T11:31:03.296Z,98757.77
2017-07-22T11:33:31.742Z,98751.98
2017-07-22T11:35:59.792Z,98761.63
2017-07-22T11:38:27.866Z,98760.62
2017-07-22T11:40:56.198Z,98755.74
2017-07-22T11:43:24.235Z,98754.50
2017-07-22T11:45:52.411Z,98754.34
2017-07-22T11:48:20.743Z,98747.88
2017-07-22T11:50:48.793Z,98752.48
2017-07-22T11:53:17.877Z,98749.48
2017-07-22T11:55:46.232Z,98749.90
2017-07-22T11:58:14.694Z,98753.16
2017-07-22T12:00:47.387Z,98757.02
2017-07-22T12:03:16.611Z,98754.62
2017-07-22T12:05:44.686Z,98755.38
2017-07-22T12:08:12.870Z,98750.81
2017-07-22T12:10:41.247Z,98747.52
2017-07-22T12:13:09.312Z,98746.62
2017-07-22T12:15:37.386Z,98745.30
2017-07-22T12:18:05.694Z,98734.17
2017-07-22T12:20:33.770Z,98737.11
2017-07-22T12:23:01.842Z,98729.54
2017-07-22T12:25:30.184Z,98725.12
2017-07-22T12:27:58.602Z,98723.73
2017-07-22T12:30:26.645Z,98723.89
2017-07-22T12:32:55.008Z,98720.80
2017-07-22T12:35:23.040Z,98719.28
2017-07-22T12:37:51.074Z,98713.98
2017-07-22T12:40:19.397Z,98721.97
2017-07-22T12:42:47.422Z,98716.47
2017-07-22T12:45:15.467Z,98712.55
2017-07-22T12:47:43.518Z,98715.02
2017-07-22T12:50:11.960Z,98706.05
2017-07-22T12:52:40.366Z,98713.55
2017-07-22T12:55:08.643Z,98711.89
2017-07-22T12:57:36.995Z,98714.12
2017-07-22T13:00:05.206Z,98712.33
2017-07-22T13:02:33.254Z,98712.70
2017-07-22T13:05:01.583Z,98711.79
2017-07-22T13:07:29.661Z,98706.37
2017-07-22T13:09:57.718Z,98708.98
2017-07-22T13:12:26.075Z,98703.16
2017-07-22T13:14:54.165Z,98702.37
2017-07-22T13:17:22.257Z,98693.83
2017-07-22T13:19:50.716Z,98692.76
2017-07-22T13:22:20.070Z,98693.59
2017-07-22T13:24:49.489Z,98693.05
2017-07-22T13:27:19.095Z,98688.91
2017-07-22T13:29:47.176Z,98689.44
2017-07-22T13:32:15.226Z,98684.48
2017-07-22T13:34:43.565Z,98678.59
2017-07-22T13:37:13.044Z,98676.50
2017-07-22T13:39:41.116Z,98668.36
2017-07-22T13:42:09.468Z,98674.52
2017-07-22T13:44:37.548Z,98665.86
2017-07-22T13:47:05.609Z,98669.98
2017-07-22T13:49:34.227Z,98662.00
2017-07-22T13:52:02.817Z,98655.02
2017-07-22T13:54:31.176Z,98644.59
2017-07-22T13:56:59.563Z,98646.55
2017-07-22T13:59:27.612Z,98642.55
2017-07-22T14:01:55.638Z,98638.45
2017-07-22T14:04:23.943Z,98632.91
2017-07-22T14:06:51.981Z,98639.88
2017-07-22T14:09:20.393Z,98640.73
2017-07-22T14:11:48.710Z,98634.80
2017-07-22T14:14:16.770Z,98638.50
2017-07-22T14:16:44.862Z,98637.59
2017-07-22T14:19:13.291Z,98632.55
2017-07-22T14:21:41.334Z,98633.74
2017-07-22T14:24:09.395Z,98630.74
2017-07-22T14:26:37.725Z,98629.91
2017-07-22T14:29:05.770Z,98629.95
2017-07-22T14:31:33.883Z,98629.38
2017-07-22T14:34:02.218Z,98629.53
2017-07-22T14:36:30.283Z,98619.95
2017-07-22T14:38:58.325Z,98619.98
2017-07-22T14:41:26.658Z,98618.94
2017-07-22T14:43:55.386Z,98618.52
2017-07-22T14:46:23.839Z,98619.38
2017-07-22T14:48:52.642Z,98621.01
2017-07-22T14:51:20.699Z,98623.26
2017-07-22T14:53:50.032Z,98625.22
2017-07-22T14:56:20.939Z,98620.55
2017-07-22T14:58:49.048Z,98620.05
2017-07-22T15:01:18.502Z,98619.08
2017-07-22T15:03:47.165Z,98622.72
2017-07-22T15:06:15.215Z,98626.66
2017-07-22T15:08:43.278Z,98620.59
2017-07-22T15:11:12.999Z,98622.89
2017-07-22T15:13:43.342Z,98622.52
2017-07-22T15:16:11.663Z,98622.34
2017-07-22T15:18:40.343Z,98627.23
2017-07-22T15:21:12.094Z,98624.19
2017-07-22T15:23:41.333Z,98629.99
2017-07-22T15:26:12.101Z,98628.33
2017-07-22T15:28:40.543Z,98629.23
2017-07-22T15:31:08.605Z,98622.34
2017-07-22T15:33:36.958Z,98620.56
2017-07-22T15:36:05.474Z,98618.41
2017-07-22T15:38:33.531Z,98611.05
2017-07-22T15:41:01.881Z,98611.92
2017-07-22T15:43:29.933Z,98614.69
2017-07-22T15:45:57.993Z,98610.52
2017-07-22T15:48:26.306Z,98608.98
2017-07-22T15:50:54.364Z,98601.41
2017-07-22T15:53:22.895Z,98606.39
2017-07-22T15:55:51.199Z,98611.58
2017-07-22T15:58:20.482Z,98618.09
2017-07-22T16:00:48.611Z,98612.45
2017-07-22T16:03:18.362Z,98612.53
2017-07-22T16:05:46.413Z,98611.98
2017-07-22T16:08:14.498Z,98611.50
2017-07-22T16:10:42.793Z,98616.16
2017-07-22T16:13:10.894Z,98621.64
2017-07-22T16:15:38.964Z,98617.77
2017-07-22T16:18:07.322Z,98616.79
2017-07-22T16:20:35.370Z,98617.02
2017-07-22T16:23:03.435Z,98620.58
2017-07-22T16:25:31.738Z,98622.07
2017-07-22T16:27:59.789Z,98620.65
2017-07-22T16:30:27.858Z,98618.86
2017-07-22T16:33:00.039Z,98615.73
2017-07-22T16:35:28.641Z,98618.04
2017-07-22T16:38:00.659Z,98610.69
2017-07-22T16:40:30.938Z,98612.67
2017-07-22T16:42:59.508Z,98611.22
2017-07-22T16:45:27.574Z,98618.41
2017-07-22T16:47:55.921Z,98618.69
2017-07-22T16:50:24.001Z,98616.95
2017-07-22T16:52:52.045Z,98623.62
2017-07-22T16:55:20.746Z,98628.91
2017-07-22T16:57:48.807Z,98636.59
2017-07-22T17:00:18.486Z,98638.80
2017-07-22T17:02:46.821Z,98637.14
2017-07-22T17:05:14.897Z,98630.54
2017-07-22T17:07:42.971Z,98630.91
2017-07-22T17:10:11.400Z,98632.25
2017-07-22T17:12:40.354Z,98637.05
2017-07-22T17:15:08.435Z,98631.55
2017-07-22T17:17:37.237Z,98634.03
2017-07-22T17:20:05.881Z,98628.84
2017-07-22T17:22:34.555Z,98631.14
2017-07-22T17:25:02.890Z,98634.57
2017-07-22T17:27:32.638Z,98637.47
2017-07-22T17:30:00.730Z,98646.28
2017-07-22T17:32:29.111Z,98641.72
2017-07-22T17:34:57.590Z,98646.50
2017-07-22T17:37:25.661Z,98642.30
2017-07-22T17:39:54.054Z,98642.41
2017-07-22T17:42:24.986Z,98642.06
2017-07-22T17:44:53.019Z,98638.11
2017-07-22T17:47:21.646Z,98630.70
2017-07-22T17:49:49.674Z,98633.38
2017-07-22T17:52:19.767Z,98638.59
2017-07-22T17:54:48.114Z,98635.40
2017-07-22T17:57:16.183Z,98633.43
2017-07-22T17:59:44.257Z,98629.58
2017-07-22T18:02:12.841Z,98623.77
2017-07-22T18:04:40.928Z,98635.95
2017-07-22T18:07:09.029Z,98634.77
2017-07-22T18:09:37.469Z,98633.25
2017-07-22T18:14:49.356Z,98624.86
2017-07-22T18:17:20.175Z,98630.23
2017-07-22T18:19:49.417Z,98627.09
2017-07-22T18:22:21.194Z,98627.92
2017-07-22T18:24:50.478Z,98627.27
2017-07-22T18:27:19.681Z,98627.45
2017-07-22T18:29:49.146Z,98628.82
2017-07-22T18:32:19.056Z,98627.31
2017-07-22T18:34:48.194Z,98631.97
2017-07-22T18:37:18.928Z,98630.97
2017-07-22T18:39:48.089Z,98636.59
2017-07-22T18:42:17.354Z,98635.53
2017-07-22T18:44:47.975Z,98628.53
2017-07-22T18:47:17.206Z,98633.69
2017-07-22T18:49:46.400Z,98642.23
2017-07-22T18:52:16.971Z,98638.31
2017-07-22T18:54:46.172Z,98634.18
2017-07-22T18:57:15.511Z,98638.47
2017-07-22T18:59:44.943Z,98644.31
2017-07-22T19:02:14.218Z,98646.09
2017-07-22T19:04:43.366Z,98646.84
2017-07-22T19:07:12.867Z,98648.16
2017-07-22T19:09:42.046Z,98651.14
2017-07-22T19:12:11.251Z,98650.94
2017-07-22T19:14:40.698Z,98661.56
2017-07-22T19:17:10.161Z,98661.25
2017-07-22T19:19:39.330Z,98661.82
2017-07-22T19:22:08.822Z,98666.59
2017-07-22T19:24:37.958Z,98662.86
2017-07-22T19:27:08.387Z,98667.30
2017-07-22T19:29:37.841Z,98667.02
2017-07-22T19:32:07.274Z,98671.27
2017-07-22T19:34:36.523Z,98676.86
2017-07-22T19:37:05.954Z,98685.84
2017-07-22T19:39:35.078Z,98677.33
2017-07-22T19:42:04.216Z,98674.30
2017-07-22T19:44:33.686Z,98674.41
2017-07-22T19:47:02.902Z,98679.14
2017-07-22T19:49:32.038Z,98668.84
2017-07-22T19:52:01.525Z,98672.30
2017-07-22T19:54:30.754Z,98678.31
2017-07-22T19:56:59.918Z,98684.20
2017-07-22T19:59:29.480Z,98687.66
2017-07-22T20:01:58.646Z,98682.00
2017-07-22T20:04:27.980Z,98681.32
2017-07-22T20:06:57.827Z,98685.23
2017-07-22T20:09:26.995Z,98680.45
2017-07-22T20:11:56.343Z,98678.97
2017-07-22T20:14:25.825Z,98687.36
2017-07-22T20:16:55.044Z,98688.38
2017-07-22T20:19:24.230Z,98691.13
2017-07-22T20:21:53.672Z,98693.14
2017-07-22T20:24:22.962Z,98695.96
2017-07-22T20:26:52.178Z,98688.30
2017-07-22T20:29:22.210Z,98691.20
2017-07-22T20:31:51.367Z,98689.53
2017-07-22T20:34:23.377Z,98690.17
2017-07-22T20:36:52.835Z,98690.49
2017-07-22T20:39:22.047Z,98686.66
2017-07-22T20:41:51.348Z,98682.06
2017-07-22T20:44:24.035Z,98680.02
2017-07-22T20:46:53.378Z,98677.78
2017-07-22T20:49:22.565Z,98685.01
2017-07-22T20:51:52.381Z,98684.91
2017-07-22T20:54:25.639Z,98678.23
2017-07-22T20:56:55.279Z,98681.53
2017-07-22T20:59:24.954Z,98678.11
2017-07-22T21:01:55.612Z,98675.84
2017-07-22T21:04:26.170Z,98669.69
2017-07-22T21:06:56.095Z,98667.80
2017-07-22T21:09:26.831Z,98663.85
2017-07-22T21:11:56.331Z,98652.89
2017-07-22T21:14:26.015Z,98654.38
2017-07-22T21:16:56.630Z,98648.30
2017-07-22T21:19:26.013Z,98647.81
2017-07-22T21:21:58.531Z,98640.31
2017-07-22T21:24:27.930Z,98640.08
2017-07-22T21:26:57.354Z,98637.59
2017-07-22T21:29:27.334Z,98635.71
2017-07-22T21:31:56.602Z,98634.45
2017-07-22T21:34:25.786Z,98631.88
2017-07-22T21:36:55.371Z,98631.02
2017-07-22T21:39:24.562Z,98632.79
2017-07-22T21:41:53.735Z,98625.09
2017-07-22T21:44:23.171Z,98621.02
2017-07-22T21:46:52.342Z,98621.98
2017-07-22T21:49:21.794Z,98621.23
2017-07-22T21:51:51.215Z,98621.52
2017-07-22T21:54:21.694Z,98629.20
2017-07-22T21:56:50.885Z,98627.83
2017-07-22T21:59:23.074Z,98624.91
2017-07-22T22:01:52.251Z,98620.53
2017-07-22T22:04:21.946Z,98623.03
2017-07-22T22:06:51.410Z,98614.89
2017-07-22T22:09:22.236Z,98622.09
2017-07-22T22:11:51.461Z,98621.55
2017-07-22T22:14:22.266Z,98616.66
2017-07-22T22:16:51.452Z,98616.88
2017-07-22T22:19:21.648Z,98614.69
2017-07-22T22:21:51.138Z,98608.25
2017-07-22T22:24:23.520Z,98612.16
2017-07-22T22:26:52.659Z,98611.22
2017-07-22T22:29:22.095Z,98618.32
2017-07-22T22:31:51.250Z,98620.50
2017-07-22T22:34:21.990Z,98619.36
2017-07-22T22:36:51.416Z,98614.52
2017-07-22T22:39:21.694Z,98619.33
2017-07-22T22:41:50.917Z,98608.41
2017-07-22T22:44:22.381Z,98606.44
2017-07-22T22:46:51.806Z,98599.56
2017-07-22T22:49:21.799Z,98588.32
2017-07-22T22:51:51.234Z,98578.98
2017-07-22T22:54:22.529Z,98583.97
2017-07-22T22:56:51.999Z,98584.01
2017-07-22T22:59:21.934Z,98582.08
2017-07-22T23:01:51.341Z,98582.70
2017-07-22T23:04:21.987Z,98585.62
2017-07-22T23:06:51.159Z,98589.66
2017-07-22T23:09:22.257Z,98577.02
2017-07-22T23:11:51.677Z,98575.08
2017-07-22T23:14:21.505Z,98575.66
2017-07-22T23:16:50.642Z,98566.90
2017-07-22T23:19:21.010Z,98568.20
2017-07-22T23:21:50.517Z,98566.67
2017-07-22T23:24:21.347Z,98563.22
2017-07-22T23:26:51.173Z,98556.02
2017-07-22T23:29:21.587Z,98552.75
2017-07-22T23:31:50.718Z,98544.89
2017-07-22T23:34:20.893Z,98538.31
2017-07-22T23:36:50.037Z,98540.47
2017-07-22T23:39:19.946Z,98544.15
2017-07-22T23:41:49.374Z,98540.94
2017-07-22T23:44:19.332Z,98540.60
2017-07-22T23:46:48.839Z,98542.56
2017-07-22T23:49:19.245Z,98544.38
2017-07-22T23:51:48.430Z,98543.69
2017-07-22T23:54:18.878Z,98550.55
2017-07-22T23:56:48.651Z,98548.98
2017-07-22T23:59:19.231Z,98547.84
